SAS1415 ANYN-NGFU
Flight info
| Callsign | SAS1415 |
|---|---|
| Flight time | 2h 0m |
| Altitude | 39000 |
| Route | UPDIX A584 AKUMO DCT KAUPA |
| Aircraft | A20N/M-SDE2E3FGHIRWXY/LB1 |
Departure
| Time | 2026-04-17 17:23 |
|---|---|
| Airport | Nauru International Airport (ANYN) |
Arrival
| Time | 2026-04-17 19:23 |
|---|---|
| Airport | Funafuti International Airport (NGFU) |
| Time | Latitude | Longitude | Altitude | Speed | Heading |
|---|---|---|---|---|---|
| 2026-04-17 17:23 | -0.68688 | 167.11914 | 7615 ft | 275 kts | 119° |
| 2026-04-17 17:23 | -0.69711 | 167.13574 | 8212 ft | 279 kts | 121° |
| 2026-04-17 17:23 | -0.70761 | 167.15210 | 8874 ft | 281 kts | 121° |
| 2026-04-17 17:23 | -0.71835 | 167.16853 | 9488 ft | 284 kts | 121° |
| 2026-04-17 17:24 | -0.72921 | 167.18506 | 10090 ft | 287 kts | 121° |
| 2026-04-17 17:24 | -0.74039 | 167.20216 | 10357 ft | 302 kts | 122° |
| 2026-04-17 17:24 | -0.75216 | 167.22022 | 10582 ft | 318 kts | 121° |
| 2026-04-17 17:24 | -0.76463 | 167.23945 | 10804 ft | 333 kts | 122° |
| 2026-04-17 17:25 | -0.77730 | 167.25900 | 11062 ft | 344 kts | 122° |
| 2026-04-17 17:25 | -0.79060 | 167.27953 | 11480 ft | 350 kts | 121° |
| 2026-04-17 17:25 | -0.80390 | 167.30007 | 11960 ft | 354 kts | 122° |
| 2026-04-17 17:25 | -0.81716 | 167.32053 | 12457 ft | 356 kts | 121° |
| 2026-04-17 17:26 | -0.83067 | 167.34139 | 12924 ft | 360 kts | 121° |
| 2026-04-17 17:26 | -0.84431 | 167.36247 | 13434 ft | 363 kts | 121° |
| 2026-04-17 17:26 | -0.85808 | 167.38373 | 13878 ft | 367 kts | 122° |
| 2026-04-17 17:26 | -0.87198 | 167.40521 | 14332 ft | 369 kts | 121° |
| 2026-04-17 17:27 | -0.88597 | 167.42684 | 14792 ft | 372 kts | 121° |
| 2026-04-17 17:27 | -0.90005 | 167.44859 | 15257 ft | 374 kts | 121° |
| 2026-04-17 17:27 | -0.91421 | 167.47048 | 15704 ft | 377 kts | 121° |
| 2026-04-17 17:27 | -0.92851 | 167.49258 | 16134 ft | 380 kts | 121° |
| 2026-04-17 17:28 | -0.94294 | 167.51488 | 16585 ft | 383 kts | 121° |
| 2026-04-17 17:28 | -0.95750 | 167.53738 | 17009 ft | 387 kts | 121° |
| 2026-04-17 17:28 | -0.97214 | 167.55999 | 17476 ft | 389 kts | 121° |
| 2026-04-17 17:28 | -0.98686 | 167.58274 | 17890 ft | 391 kts | 121° |
| 2026-04-17 17:29 | -1.00170 | 167.60567 | 18290 ft | 393 kts | 121° |
| 2026-04-17 17:29 | -1.01663 | 167.62875 | 18590 ft | 397 kts | 121° |
| 2026-04-17 17:29 | -1.03148 | 167.65170 | 18946 ft | 399 kts | 121° |
| 2026-04-17 17:29 | -1.04659 | 167.67504 | 19271 ft | 401 kts | 121° |
| 2026-04-17 17:30 | -1.06175 | 167.69847 | 19625 ft | 402 kts | 121° |
| 2026-04-17 17:30 | -1.07696 | 167.72198 | 19953 ft | 404 kts | 121° |
| 2026-04-17 17:30 | -1.09227 | 167.74564 | 20283 ft | 406 kts | 121° |
| 2026-04-17 17:30 | -1.10764 | 167.76939 | 20601 ft | 408 kts | 121° |
| 2026-04-17 17:31 | -1.12308 | 167.79325 | 20927 ft | 410 kts | 121° |
| 2026-04-17 17:31 | -1.13861 | 167.81727 | 21194 ft | 413 kts | 122° |
| 2026-04-17 17:31 | -1.15426 | 167.84146 | 21545 ft | 415 kts | 121° |
| 2026-04-17 17:31 | -1.16997 | 167.86575 | 21897 ft | 417 kts | 122° |
| 2026-04-17 17:32 | -1.18573 | 167.89010 | 22251 ft | 418 kts | 121° |
| 2026-04-17 17:32 | -1.20154 | 167.91455 | 22592 ft | 420 kts | 122° |
| 2026-04-17 17:32 | -1.21745 | 167.93915 | 22900 ft | 423 kts | 122° |
| 2026-04-17 17:32 | -1.23348 | 167.96394 | 23208 ft | 425 kts | 122° |
| 2026-04-17 17:33 | -1.24960 | 167.98885 | 23503 ft | 428 kts | 122° |
| 2026-04-17 17:33 | -1.26582 | 168.01393 | 23788 ft | 429 kts | 121° |
| 2026-04-17 17:33 | -1.28201 | 168.03894 | 24093 ft | 430 kts | 121° |
| 2026-04-17 17:33 | -1.29826 | 168.06407 | 24412 ft | 431 kts | 121° |
| 2026-04-17 17:34 | -1.31455 | 168.08925 | 24666 ft | 433 kts | 122° |
| 2026-04-17 17:34 | -1.33077 | 168.11434 | 24951 ft | 435 kts | 122° |
| 2026-04-17 17:34 | -1.34727 | 168.13985 | 25260 ft | 437 kts | 122° |
| 2026-04-17 17:34 | -1.36380 | 168.16541 | 25608 ft | 438 kts | 122° |
| 2026-04-17 17:35 | -1.38035 | 168.19100 | 25909 ft | 439 kts | 122° |
| 2026-04-17 17:35 | -1.39694 | 168.21665 | 26234 ft | 440 kts | 122° |
| 2026-04-17 17:35 | -1.41363 | 168.24247 | 26492 ft | 443 kts | 122° |
| 2026-04-17 17:35 | -1.43037 | 168.26836 | 26783 ft | 445 kts | 122° |
| 2026-04-17 17:36 | -1.44719 | 168.29438 | 27041 ft | 447 kts | 122° |
| 2026-04-17 17:36 | -1.46410 | 168.32052 | 27367 ft | 447 kts | 122° |
| 2026-04-17 17:36 | -1.48103 | 168.34671 | 27627 ft | 449 kts | 122° |
| 2026-04-17 17:36 | -1.49799 | 168.37294 | 27893 ft | 451 kts | 122° |
| 2026-04-17 17:37 | -1.51507 | 168.39936 | 28183 ft | 452 kts | 122° |
| 2026-04-17 17:37 | -1.53219 | 168.42584 | 28468 ft | 453 kts | 122° |
| 2026-04-17 17:37 | -1.54909 | 168.45199 | 28740 ft | 455 kts | 122° |
| 2026-04-17 17:37 | -1.56626 | 168.47855 | 29067 ft | 455 kts | 122° |
| 2026-04-17 17:38 | -1.58338 | 168.50503 | 29480 ft | 453 kts | 122° |
| 2026-04-17 17:38 | -1.60045 | 168.53143 | 29882 ft | 451 kts | 122° |
| 2026-04-17 17:38 | -1.61743 | 168.55770 | 30205 ft | 450 kts | 122° |
| 2026-04-17 17:38 | -1.63439 | 168.58394 | 30463 ft | 450 kts | 122° |
| 2026-04-17 17:39 | -1.65140 | 168.61025 | 30716 ft | 450 kts | 122° |
| 2026-04-17 17:39 | -1.66837 | 168.63651 | 30973 ft | 450 kts | 122° |
| 2026-04-17 17:39 | -1.68533 | 168.66277 | 31240 ft | 450 kts | 122° |
| 2026-04-17 17:39 | -1.70229 | 168.68900 | 31500 ft | 449 kts | 122° |
| 2026-04-17 17:40 | -1.71924 | 168.71525 | 31740 ft | 450 kts | 122° |
| 2026-04-17 17:40 | -1.73621 | 168.74151 | 31986 ft | 450 kts | 122° |
| 2026-04-17 17:40 | -1.75341 | 168.76812 | 32211 ft | 450 kts | 122° |
| 2026-04-17 17:40 | -1.77014 | 168.79402 | 32507 ft | 449 kts | 122° |
| 2026-04-17 17:41 | -1.78708 | 168.82023 | 32772 ft | 448 kts | 122° |
| 2026-04-17 17:41 | -1.80394 | 168.84632 | 33067 ft | 446 kts | 122° |
| 2026-04-17 17:41 | -1.82078 | 168.87239 | 33288 ft | 447 kts | 122° |
| 2026-04-17 17:41 | -1.83763 | 168.89848 | 33512 ft | 447 kts | 122° |
| 2026-04-17 17:42 | -1.85452 | 168.92463 | 33701 ft | 448 kts | 122° |
| 2026-04-17 17:42 | -1.87144 | 168.95083 | 33920 ft | 447 kts | 122° |
| 2026-04-17 17:42 | -1.88823 | 168.97680 | 34239 ft | 443 kts | 122° |
| 2026-04-17 17:42 | -1.90490 | 169.00261 | 34496 ft | 441 kts | 122° |
| 2026-04-17 17:43 | -1.92153 | 169.02835 | 34683 ft | 441 kts | 122° |
| 2026-04-17 17:43 | -1.93820 | 169.05417 | 34834 ft | 441 kts | 122° |
| 2026-04-17 17:43 | -1.95487 | 169.07998 | 34990 ft | 441 kts | 122° |
| 2026-04-17 17:43 | -1.97150 | 169.10574 | 35165 ft | 441 kts | 122° |
| 2026-04-17 17:44 | -1.98817 | 169.13156 | 35348 ft | 440 kts | 122° |
| 2026-04-17 17:44 | -2.00457 | 169.15694 | 35538 ft | 439 kts | 122° |
| 2026-04-17 17:44 | -2.02133 | 169.18290 | 35720 ft | 438 kts | 122° |
| 2026-04-17 17:44 | -2.03786 | 169.20851 | 35837 ft | 439 kts | 122° |
| 2026-04-17 17:45 | -2.05440 | 169.23412 | 35976 ft | 439 kts | 122° |
| 2026-04-17 17:45 | -2.07077 | 169.25948 | 36079 ft | 439 kts | 122° |
| 2026-04-17 17:45 | -2.08731 | 169.28510 | 36255 ft | 438 kts | 122° |
| 2026-04-17 17:45 | -2.10382 | 169.31067 | 36399 ft | 437 kts | 122° |
| 2026-04-17 17:46 | -2.12032 | 169.33623 | 36556 ft | 437 kts | 122° |
| 2026-04-17 17:46 | -2.13679 | 169.36174 | 36661 ft | 437 kts | 122° |
| 2026-04-17 17:46 | -2.15332 | 169.38736 | 36781 ft | 437 kts | 122° |
| 2026-04-17 17:47 | -2.18633 | 169.43850 | 36973 ft | 437 kts | 122° |
| 2026-04-17 17:47 | -2.21933 | 169.48962 | 37191 ft | 437 kts | 122° |
| 2026-04-17 17:48 | -2.25245 | 169.54095 | 37288 ft | 440 kts | 122° |
| 2026-04-17 17:48 | -2.28568 | 169.59246 | 37415 ft | 442 kts | 123° |
| 2026-04-17 17:48 | -2.30235 | 169.61829 | 37534 ft | 441 kts | 123° |
| 2026-04-17 17:49 | -2.31900 | 169.64410 | 37608 ft | 442 kts | 123° |
| 2026-04-17 17:49 | -2.33564 | 169.66989 | 37724 ft | 441 kts | 123° |
| 2026-04-17 17:49 | -2.35235 | 169.69579 | 37722 ft | 444 kts | 123° |
| 2026-04-17 17:50 | -2.38567 | 169.74744 | 37788 ft | 446 kts | 123° |
| 2026-04-17 17:50 | -2.40250 | 169.77354 | 37919 ft | 445 kts | 123° |
| 2026-04-17 17:50 | -2.41927 | 169.79954 | 38005 ft | 445 kts | 123° |
| 2026-04-17 17:51 | -2.45292 | 169.85172 | 38105 ft | 447 kts | 123° |
| 2026-04-17 17:51 | -2.48667 | 169.90407 | 38192 ft | 449 kts | 123° |
| 2026-04-17 17:52 | -2.52054 | 169.95659 | 38350 ft | 449 kts | 123° |
| 2026-04-17 17:52 | -2.55448 | 170.00907 | 38500 ft | 449 kts | 123° |
| 2026-04-17 17:53 | -2.58921 | 170.06135 | 38529 ft | 452 kts | 124° |
| 2026-04-17 17:53 | -2.62429 | 170.11365 | 38659 ft | 452 kts | 124° |
| 2026-04-17 17:54 | -2.65927 | 170.16590 | 38781 ft | 452 kts | 124° |
| 2026-04-17 17:54 | -2.69428 | 170.21832 | 38780 ft | 455 kts | 123° |
| 2026-04-17 17:55 | -2.72927 | 170.27076 | 38817 ft | 457 kts | 123° |
| 2026-04-17 17:55 | -2.74687 | 170.29713 | 38929 ft | 455 kts | 123° |
| 2026-04-17 17:55 | -2.76448 | 170.32352 | 38914 ft | 455 kts | 123° |
| 2026-04-17 17:56 | -2.79961 | 170.37618 | 38902 ft | 455 kts | 123° |
| 2026-04-17 17:56 | -2.83474 | 170.42885 | 38904 ft | 456 kts | 123° |
| 2026-04-17 17:57 | -2.86406 | 170.47280 | 38912 ft | 456 kts | 123° |
| 2026-04-17 17:57 | -2.90502 | 170.53422 | 38907 ft | 455 kts | 123° |
| 2026-04-17 17:58 | -2.93442 | 170.57830 | 38908 ft | 454 kts | 123° |
| 2026-04-17 17:58 | -2.96951 | 170.63093 | 38907 ft | 455 kts | 123° |
| 2026-04-17 17:59 | -3.00464 | 170.68362 | 38909 ft | 455 kts | 123° |
| 2026-04-17 17:59 | -3.03975 | 170.73628 | 38905 ft | 454 kts | 123° |
| 2026-04-17 18:00 | -3.07463 | 170.78862 | 38907 ft | 456 kts | 123° |
| 2026-04-17 18:00 | -3.10991 | 170.84155 | 38911 ft | 457 kts | 123° |
| 2026-04-17 18:01 | -3.14520 | 170.89452 | 38909 ft | 455 kts | 123° |
| 2026-04-17 18:01 | -3.18030 | 170.94720 | 38909 ft | 455 kts | 123° |
| 2026-04-17 18:02 | -3.21549 | 171.00002 | 38911 ft | 456 kts | 123° |
| 2026-04-17 18:02 | -3.25048 | 171.05256 | 38910 ft | 456 kts | 123° |
| 2026-04-17 18:03 | -3.28579 | 171.10559 | 38909 ft | 454 kts | 123° |
| 2026-04-17 18:03 | -3.32063 | 171.15792 | 38913 ft | 455 kts | 123° |
| 2026-04-17 18:04 | -3.35576 | 171.21069 | 38908 ft | 456 kts | 123° |
| 2026-04-17 18:04 | -3.39094 | 171.26353 | 38911 ft | 455 kts | 123° |
| 2026-04-17 18:05 | -3.42595 | 171.31614 | 38917 ft | 454 kts | 123° |
| 2026-04-17 18:05 | -3.46100 | 171.36882 | 38916 ft | 455 kts | 123° |
| 2026-04-17 18:06 | -3.49610 | 171.42156 | 38913 ft | 455 kts | 123° |
| 2026-04-17 18:06 | -3.53114 | 171.47424 | 38908 ft | 454 kts | 123° |
| 2026-04-17 18:07 | -3.56616 | 171.52689 | 38910 ft | 454 kts | 123° |
| 2026-04-17 18:07 | -3.60121 | 171.57961 | 38915 ft | 455 kts | 123° |
| 2026-04-17 18:08 | -3.63604 | 171.63199 | 38914 ft | 454 kts | 123° |
| 2026-04-17 18:08 | -3.67101 | 171.68459 | 38915 ft | 454 kts | 123° |
| 2026-04-17 18:09 | -3.70602 | 171.73726 | 38914 ft | 454 kts | 123° |
| 2026-04-17 18:09 | -3.74104 | 171.78996 | 38914 ft | 455 kts | 123° |
| 2026-04-17 18:10 | -3.77612 | 171.84274 | 38913 ft | 453 kts | 123° |
| 2026-04-17 18:10 | -3.81111 | 171.89542 | 38916 ft | 455 kts | 123° |
| 2026-04-17 18:11 | -3.84600 | 171.94796 | 38915 ft | 456 kts | 123° |
| 2026-04-17 18:11 | -3.88112 | 172.00084 | 38920 ft | 456 kts | 123° |
| 2026-04-17 18:12 | -3.91616 | 172.05361 | 38917 ft | 455 kts | 123° |
| 2026-04-17 18:12 | -3.95117 | 172.10636 | 38918 ft | 455 kts | 123° |
| 2026-04-17 18:13 | -3.98627 | 172.15924 | 38922 ft | 455 kts | 123° |
| 2026-04-17 18:13 | -4.02130 | 172.21202 | 38921 ft | 454 kts | 123° |
| 2026-04-17 18:14 | -4.05627 | 172.26471 | 38922 ft | 454 kts | 123° |
| 2026-04-17 18:14 | -4.09123 | 172.31742 | 38919 ft | 455 kts | 123° |
| 2026-04-17 18:15 | -4.12625 | 172.37022 | 38920 ft | 455 kts | 123° |
| 2026-04-17 18:15 | -4.16120 | 172.42292 | 38915 ft | 453 kts | 123° |
| 2026-04-17 18:16 | -4.19583 | 172.47515 | 38921 ft | 453 kts | 123° |
| 2026-04-17 18:16 | -4.23080 | 172.52790 | 38919 ft | 455 kts | 123° |
| 2026-04-17 18:17 | -4.26577 | 172.58067 | 38926 ft | 454 kts | 123° |
| 2026-04-17 18:17 | -4.31813 | 172.65969 | 38928 ft | 453 kts | 123° |
| 2026-04-17 18:18 | -4.35302 | 172.71237 | 38923 ft | 455 kts | 123° |
| 2026-04-17 18:18 | -4.38805 | 172.76526 | 38923 ft | 454 kts | 123° |
| 2026-04-17 18:19 | -4.42293 | 172.81793 | 38924 ft | 453 kts | 123° |
| 2026-04-17 18:19 | -4.45756 | 172.87023 | 38923 ft | 453 kts | 123° |
| 2026-04-17 18:20 | -4.49248 | 172.92299 | 38926 ft | 454 kts | 123° |
| 2026-04-17 18:20 | -4.52741 | 172.97578 | 38925 ft | 454 kts | 123° |
| 2026-04-17 18:21 | -4.56226 | 173.02845 | 38923 ft | 452 kts | 123° |
| 2026-04-17 18:21 | -4.59712 | 173.08115 | 38922 ft | 454 kts | 123° |
| 2026-04-17 18:22 | -4.63212 | 173.13407 | 38930 ft | 456 kts | 123° |
| 2026-04-17 18:22 | -4.66683 | 173.18656 | 38926 ft | 454 kts | 123° |
| 2026-04-17 18:23 | -4.70161 | 173.23917 | 38924 ft | 452 kts | 123° |
| 2026-04-17 18:23 | -4.73639 | 173.29180 | 38925 ft | 453 kts | 123° |
| 2026-04-17 18:24 | -4.77125 | 173.34455 | 38930 ft | 454 kts | 123° |
| 2026-04-17 18:24 | -4.80608 | 173.39727 | 38928 ft | 453 kts | 123° |
| 2026-04-17 18:25 | -4.84082 | 173.44986 | 38926 ft | 452 kts | 123° |
| 2026-04-17 18:25 | -4.87556 | 173.50247 | 38928 ft | 453 kts | 123° |
| 2026-04-17 18:26 | -4.91039 | 173.55522 | 38929 ft | 454 kts | 123° |
| 2026-04-17 18:26 | -4.94523 | 173.60801 | 38931 ft | 453 kts | 123° |
| 2026-04-17 18:27 | -4.97999 | 173.66069 | 38928 ft | 453 kts | 123° |
| 2026-04-17 18:27 | -5.01483 | 173.71349 | 38932 ft | 455 kts | 123° |
| 2026-04-17 18:28 | -5.04979 | 173.76650 | 38928 ft | 455 kts | 123° |
| 2026-04-17 18:28 | -5.08441 | 173.81899 | 38932 ft | 454 kts | 123° |
| 2026-04-17 18:29 | -5.11922 | 173.87178 | 38932 ft | 453 kts | 123° |
| 2026-04-17 18:29 | -5.15402 | 173.92458 | 38929 ft | 454 kts | 123° |
| 2026-04-17 18:30 | -5.18892 | 173.97754 | 38931 ft | 454 kts | 123° |
| 2026-04-17 18:30 | -5.22375 | 174.03040 | 38932 ft | 453 kts | 123° |
| 2026-04-17 18:31 | -5.25845 | 174.08308 | 38936 ft | 453 kts | 123° |
| 2026-04-17 18:31 | -5.29319 | 174.13583 | 38932 ft | 454 kts | 123° |
| 2026-04-17 18:32 | -5.32803 | 174.18876 | 38932 ft | 454 kts | 123° |
| 2026-04-17 18:32 | -5.36285 | 174.24165 | 38933 ft | 453 kts | 123° |
| 2026-04-17 18:33 | -5.39731 | 174.29403 | 38927 ft | 453 kts | 123° |
| 2026-04-17 18:33 | -5.43200 | 174.34675 | 38932 ft | 453 kts | 123° |
| 2026-04-17 18:34 | -5.46669 | 174.39950 | 38931 ft | 452 kts | 123° |
| 2026-04-17 18:34 | -5.50139 | 174.45226 | 38933 ft | 452 kts | 123° |
| 2026-04-17 18:35 | -5.53593 | 174.50479 | 38934 ft | 451 kts | 123° |
| 2026-04-17 18:35 | -5.57051 | 174.55742 | 38935 ft | 452 kts | 123° |
| 2026-04-17 18:36 | -5.60523 | 174.61026 | 38936 ft | 453 kts | 123° |
| 2026-04-17 18:36 | -5.63970 | 174.66272 | 38936 ft | 451 kts | 123° |
| 2026-04-17 18:37 | -5.67429 | 174.71540 | 38938 ft | 451 kts | 123° |
| 2026-04-17 18:37 | -5.70888 | 174.76808 | 38938 ft | 451 kts | 123° |
| 2026-04-17 18:38 | -5.74353 | 174.82087 | 38941 ft | 452 kts | 123° |
| 2026-04-17 18:38 | -5.77790 | 174.87324 | 38940 ft | 451 kts | 123° |
| 2026-04-17 18:39 | -5.81239 | 174.92582 | 38940 ft | 450 kts | 123° |
| 2026-04-17 18:39 | -5.84693 | 174.97848 | 38940 ft | 451 kts | 123° |
| 2026-04-17 18:40 | -5.88148 | 175.03117 | 38944 ft | 452 kts | 123° |
| 2026-04-17 18:40 | -5.91601 | 175.08385 | 38941 ft | 452 kts | 123° |
| 2026-04-17 18:41 | -5.95051 | 175.13648 | 38940 ft | 451 kts | 123° |
| 2026-04-17 18:41 | -5.98504 | 175.18918 | 38944 ft | 452 kts | 123° |
| 2026-04-17 18:42 | -6.01965 | 175.24202 | 38943 ft | 453 kts | 123° |
| 2026-04-17 18:42 | -6.05405 | 175.29455 | 38943 ft | 452 kts | 123° |
| 2026-04-17 18:43 | -6.08858 | 175.34731 | 38945 ft | 451 kts | 123° |
| 2026-04-17 18:43 | -6.12303 | 175.39995 | 38944 ft | 451 kts | 123° |
| 2026-04-17 18:44 | -6.15754 | 175.45269 | 38942 ft | 452 kts | 123° |
| 2026-04-17 18:44 | -6.19208 | 175.50549 | 38939 ft | 452 kts | 123° |
| 2026-04-17 18:45 | -6.22078 | 175.54938 | 38944 ft | 451 kts | 123° |
| 2026-04-17 18:45 | -6.25540 | 175.60202 | 38946 ft | 451 kts | 124° |
| 2026-04-17 18:46 | -6.29105 | 175.65391 | 38946 ft | 451 kts | 125° |
| 2026-04-17 18:46 | -6.32712 | 175.70566 | 38947 ft | 452 kts | 125° |
| 2026-04-17 18:47 | -6.36309 | 175.75741 | 38947 ft | 451 kts | 125° |
| 2026-04-17 18:47 | -6.39894 | 175.80919 | 38944 ft | 451 kts | 124° |
| 2026-04-17 18:48 | -6.43469 | 175.86091 | 38953 ft | 451 kts | 124° |
| 2026-04-17 18:48 | -6.47057 | 175.91284 | 38948 ft | 452 kts | 124° |
| 2026-04-17 18:49 | -6.50630 | 175.96455 | 38946 ft | 453 kts | 124° |
| 2026-04-17 18:49 | -6.54220 | 176.01652 | 38949 ft | 452 kts | 124° |
| 2026-04-17 18:50 | -6.57807 | 176.06847 | 38950 ft | 451 kts | 124° |
| 2026-04-17 18:50 | -6.61386 | 176.12032 | 38953 ft | 452 kts | 124° |
| 2026-04-17 18:51 | -6.64972 | 176.17228 | 38949 ft | 452 kts | 124° |
| 2026-04-17 18:51 | -6.68563 | 176.22433 | 38952 ft | 453 kts | 124° |
| 2026-04-17 18:52 | -6.72162 | 176.27651 | 38953 ft | 453 kts | 124° |
| 2026-04-17 18:52 | -6.75735 | 176.32832 | 38951 ft | 451 kts | 124° |
| 2026-04-17 18:53 | -6.79322 | 176.38036 | 38949 ft | 452 kts | 124° |
| 2026-04-17 18:53 | -6.82907 | 176.43239 | 38948 ft | 453 kts | 124° |
| 2026-04-17 18:54 | -6.86503 | 176.48459 | 38951 ft | 454 kts | 124° |
| 2026-04-17 18:54 | -6.90075 | 176.53646 | 38951 ft | 454 kts | 124° |
| 2026-04-17 18:55 | -6.93672 | 176.58869 | 38953 ft | 453 kts | 124° |
| 2026-04-17 18:55 | -6.97259 | 176.64083 | 38951 ft | 453 kts | 124° |
| 2026-04-17 18:56 | -7.00851 | 176.69302 | 38957 ft | 453 kts | 124° |
| 2026-04-17 18:56 | -7.04454 | 176.74542 | 38959 ft | 454 kts | 124° |
| 2026-04-17 18:57 | -7.08032 | 176.79744 | 38955 ft | 454 kts | 124° |
| 2026-04-17 18:57 | -7.11624 | 176.84970 | 38955 ft | 453 kts | 124° |
| 2026-04-17 18:58 | -7.15214 | 176.90195 | 38955 ft | 453 kts | 124° |
| 2026-04-17 18:58 | -7.18784 | 176.95392 | 38957 ft | 453 kts | 124° |
| 2026-04-17 18:59 | -7.22379 | 177.00627 | 38961 ft | 455 kts | 124° |
| 2026-04-17 18:59 | -7.25988 | 177.05884 | 38961 ft | 457 kts | 124° |
| 2026-04-17 19:00 | -7.29594 | 177.11139 | 38963 ft | 456 kts | 124° |
| 2026-04-17 19:00 | -7.33206 | 177.16403 | 38961 ft | 455 kts | 124° |
| 2026-04-17 19:01 | -7.36805 | 177.21651 | 38961 ft | 456 kts | 124° |
| 2026-04-17 19:01 | -7.40410 | 177.26910 | 38960 ft | 456 kts | 124° |
| 2026-04-17 19:02 | -7.44014 | 177.32169 | 38961 ft | 456 kts | 124° |
| 2026-04-17 19:02 | -7.47617 | 177.37428 | 38962 ft | 456 kts | 124° |
| 2026-04-17 19:03 | -7.51204 | 177.42665 | 38963 ft | 456 kts | 124° |
| 2026-04-17 19:03 | -7.54806 | 177.47925 | 38963 ft | 456 kts | 124° |
| 2026-04-17 19:04 | -7.58415 | 177.53199 | 38961 ft | 456 kts | 124° |
| 2026-04-17 19:04 | -7.62022 | 177.58471 | 38926 ft | 457 kts | 124° |
| 2026-04-17 19:05 | -7.63828 | 177.61110 | 38620 ft | 457 kts | 124° |
| 2026-04-17 19:05 | -7.65632 | 177.63748 | 38195 ft | 455 kts | 124° |
| 2026-04-17 19:05 | -7.67427 | 177.66373 | 37768 ft | 453 kts | 124° |
| 2026-04-17 19:05 | -7.69209 | 177.68981 | 37329 ft | 449 kts | 124° |
| 2026-04-17 19:06 | -7.70978 | 177.71569 | 36841 ft | 447 kts | 124° |
| 2026-04-17 19:06 | -7.72738 | 177.74144 | 36318 ft | 446 kts | 124° |
| 2026-04-17 19:06 | -7.74498 | 177.76720 | 35788 ft | 446 kts | 124° |
| 2026-04-17 19:06 | -7.76259 | 177.79297 | 35266 ft | 445 kts | 124° |
| 2026-04-17 19:07 | -7.78014 | 177.81866 | 34754 ft | 445 kts | 124° |
| 2026-04-17 19:07 | -7.79743 | 177.84398 | 34264 ft | 444 kts | 124° |
| 2026-04-17 19:07 | -7.81497 | 177.86967 | 33744 ft | 444 kts | 124° |
| 2026-04-17 19:07 | -7.83245 | 177.89527 | 33187 ft | 443 kts | 124° |
| 2026-04-17 19:08 | -7.84994 | 177.92089 | 32638 ft | 444 kts | 124° |
| 2026-04-17 19:08 | -7.86748 | 177.94661 | 32012 ft | 446 kts | 124° |
| 2026-04-17 19:08 | -7.88512 | 177.97246 | 31372 ft | 449 kts | 124° |
| 2026-04-17 19:08 | -7.90286 | 177.99846 | 30749 ft | 451 kts | 125° |
| 2026-04-17 19:09 | -7.92066 | 178.02455 | 30141 ft | 452 kts | 124° |
| 2026-04-17 19:09 | -7.93853 | 178.05075 | 29452 ft | 454 kts | 125° |
| 2026-04-17 19:09 | -7.95644 | 178.07701 | 28751 ft | 455 kts | 125° |
| 2026-04-17 19:09 | -7.97442 | 178.10339 | 28072 ft | 456 kts | 125° |
| 2026-04-17 19:10 | -7.99240 | 178.12976 | 27405 ft | 457 kts | 125° |
| 2026-04-17 19:10 | -8.01039 | 178.15616 | 26754 ft | 457 kts | 125° |
| 2026-04-17 19:10 | -8.02842 | 178.18262 | 26122 ft | 457 kts | 125° |
| 2026-04-17 19:10 | -8.04641 | 178.20903 | 25497 ft | 457 kts | 125° |
| 2026-04-17 19:11 | -8.06439 | 178.23542 | 24887 ft | 456 kts | 125° |
| 2026-04-17 19:11 | -8.08235 | 178.26179 | 24281 ft | 456 kts | 125° |
| 2026-04-17 19:11 | -8.10027 | 178.28812 | 23709 ft | 455 kts | 125° |
| 2026-04-17 19:11 | -8.11816 | 178.31439 | 23049 ft | 454 kts | 125° |
| 2026-04-17 19:12 | -8.13601 | 178.34062 | 22365 ft | 452 kts | 125° |
| 2026-04-17 19:12 | -8.15378 | 178.36673 | 21704 ft | 451 kts | 125° |
| 2026-04-17 19:12 | -8.17147 | 178.39273 | 21046 ft | 449 kts | 125° |
| 2026-04-17 19:12 | -8.18909 | 178.41862 | 20405 ft | 446 kts | 124° |
| 2026-04-17 19:13 | -8.20639 | 178.44406 | 19784 ft | 444 kts | 124° |
| 2026-04-17 19:13 | -8.22381 | 178.46967 | 19179 ft | 441 kts | 124° |
| 2026-04-17 19:13 | -8.24133 | 178.49543 | 18570 ft | 439 kts | 124° |
| 2026-04-17 19:13 | -8.25833 | 178.52044 | 17942 ft | 436 kts | 124° |
| 2026-04-17 19:14 | -8.27544 | 178.54562 | 17258 ft | 433 kts | 124° |
| 2026-04-17 19:14 | -8.29240 | 178.57058 | 16589 ft | 430 kts | 124° |
| 2026-04-17 19:14 | -8.30924 | 178.59537 | 15933 ft | 426 kts | 124° |
| 2026-04-17 19:14 | -8.32598 | 178.62001 | 15281 ft | 423 kts | 124° |
| 2026-04-17 19:15 | -8.34256 | 178.64443 | 14672 ft | 420 kts | 124° |
| 2026-04-17 19:15 | -8.35902 | 178.66866 | 14059 ft | 417 kts | 124° |
| 2026-04-17 19:15 | -8.37535 | 178.69272 | 13412 ft | 414 kts | 124° |
| 2026-04-17 19:15 | -8.39162 | 178.71668 | 12740 ft | 411 kts | 124° |
| 2026-04-17 19:16 | -8.40773 | 178.74043 | 11944 ft | 410 kts | 124° |
| 2026-04-17 19:16 | -8.42388 | 178.76424 | 11111 ft | 411 kts | 124° |
| 2026-04-17 19:16 | -8.44005 | 178.78807 | 10344 ft | 411 kts | 124° |
| 2026-04-17 19:16 | -8.45601 | 178.81159 | 9903 ft | 401 kts | 123° |
| 2026-04-17 19:17 | -8.47159 | 178.83453 | 9376 ft | 390 kts | 124° |
| 2026-04-17 19:17 | -8.48664 | 178.85667 | 8799 ft | 375 kts | 123° |
| 2026-04-17 19:17 | -8.50114 | 178.87797 | 8218 ft | 361 kts | 123° |
| 2026-04-17 19:17 | -8.51519 | 178.89860 | 7627 ft | 349 kts | 124° |
| 2026-04-17 19:18 | -8.52876 | 178.91848 | 7075 ft | 338 kts | 124° |
| 2026-04-17 19:18 | -8.54190 | 178.93781 | 6536 ft | 328 kts | 123° |
| 2026-04-17 19:18 | -8.55466 | 178.95647 | 5984 ft | 319 kts | 123° |
| 2026-04-17 19:18 | -8.56713 | 178.97464 | 5427 ft | 311 kts | 125° |
| 2026-04-17 19:19 | -8.58041 | 178.99164 | 4869 ft | 304 kts | 128° |
| 2026-04-17 19:19 | -8.59375 | 179.00798 | 4307 ft | 299 kts | 129° |
| 2026-04-17 19:19 | -8.60679 | 179.02373 | 3756 ft | 294 kts | 129° |
| 2026-04-17 19:19 | -8.62004 | 179.03961 | 3200 ft | 289 kts | 129° |
| 2026-04-17 19:20 | -8.63180 | 179.05551 | 2651 ft | 284 kts | 116° |
| 2026-04-17 19:20 | -8.63602 | 179.07454 | 2073 ft | 277 kts | 86° |
| 2026-04-17 19:20 | -8.63116 | 179.09310 | 1517 ft | 275 kts | 62° |
| 2026-04-17 19:20 | -8.61952 | 179.10809 | 1114 ft | 267 kts | 45° |
| 2026-04-17 19:21 | -8.60642 | 179.12043 | 997 ft | 248 kts | 43° |
| 2026-04-17 19:21 | -8.59414 | 179.13159 | 985 ft | 227 kts | 43° |
| 2026-04-17 19:21 | -8.58316 | 179.14159 | 1007 ft | 196 kts | 43° |
| 2026-04-17 19:21 | -8.57383 | 179.15015 | 985 ft | 166 kts | 44° |
| 2026-04-17 19:22 | -8.56599 | 179.15738 | 940 ft | 144 kts | 45° |
| 2026-04-17 19:22 | -8.55875 | 179.16406 | 788 ft | 140 kts | 43° |
| 2026-04-17 19:22 | -8.55144 | 179.17062 | 574 ft | 140 kts | 46° |
| 2026-04-17 19:22 | -8.54434 | 179.17747 | 410 ft | 143 kts | 45° |
| 2026-04-17 19:23 | -8.53719 | 179.18433 | 241 ft | 141 kts | 44° |
| 2026-04-17 19:23 | -8.52354 | 179.19719 | 16 ft | 106 kts | 43° |
| 2026-04-17 19:23 | -8.52044 | 179.20010 | 16 ft | 29 kts | 43° |
| 2026-04-17 19:24 | -8.51935 | 179.20119 | 15 ft | 11 kts | 64° |
| 2026-04-17 19:24 | -8.51909 | 179.20148 | 14 ft | 1 kts | 334° |
| 2026-04-17 19:24 | -8.51915 | 179.20133 | 16 ft | 6 kts | 236° |
| 2026-04-17 19:24 | -8.51982 | 179.20068 | 16 ft | 22 kts | 223° |
| 2026-04-17 19:25 | -8.52114 | 179.19944 | 16 ft | 26 kts | 223° |
| 2026-04-17 19:25 | -8.52242 | 179.19824 | 18 ft | 25 kts | 223° |
| 2026-04-17 19:25 | -8.52369 | 179.19705 | 15 ft | 25 kts | 223° |
| 2026-04-17 19:25 | -8.52466 | 179.19614 | 16 ft | 3 kts | 223° |
| 2026-04-17 19:26 | -8.52484 | 179.19597 | 15 ft | 4 kts | 223° |
| 2026-04-17 19:26 | -8.52504 | 179.19577 | 15 ft | 4 kts | 236° |
| 2026-04-17 19:26 | -8.52500 | 179.19554 | 14 ft | 3 kts | 299° |
| 2026-04-17 19:26 | -8.52488 | 179.19545 | 14 ft | 1 kts | 319° |
| 2026-04-17 19:27 | -8.52486 | 179.19543 | 15 ft | 0 kts | 313° |